Time;durP1;ratioP1;P1;durP2;ratioP2;P2;SDS_P1;SDS_P2;PMS_P1;PMS_P2;Temp;Humidity;BMP_temperature;BMP_pressure;BME280_temperature;BME280_humidity;BME280_pressure;Samples;Min_cycle;Max_cycle;Signal;HPM_P1;HPM_P2
2021/12/26 00:09:10;;;;;;;32.83;13.50;;;;;;;0.14;100.00;95053.22;20633972;28;20402;-72
2021/12/26 00:19:10;;;;;;;35.38;14.15;;;;;;;0.15;100.00;95039.16;20672955;28;20077;-72
2021/12/26 00:29:11;;;;;;;40.67;15.45;;;;;;;0.24;100.00;95042.88;20686224;28;20045;-72
2021/12/26 00:39:11;;;;;;;29.50;12.80;;;;;;;0.28;100.00;95051.75;20679474;28;20046;-72
2021/12/26 00:49:12;;;;;;;30.38;12.90;;;;;;;0.26;100.00;95038.19;20678954;28;20060;-72
2021/12/26 00:59:12;;;;;;;35.20;14.95;;;;;;;0.29;100.00;95029.09;20677303;28;20048;-73
2021/12/26 01:09:18;;;;;;;41.83;16.08;;;;;;;0.21;100.00;95032.97;20671258;28;20096;-73
2021/12/26 01:19:25;;;;;;;42.03;15.93;;;;;;;0.17;100.00;95037.09;20658943;28;20049;-73
2021/12/26 01:29:25;;;;;;;34.25;15.23;;;;;;;0.23;100.00;95046.50;20683443;28;20041;-73
2021/12/26 01:39:26;;;;;;;42.60;15.32;;;;;;;0.21;100.00;95043.38;20683977;28;20053;-72
2021/12/26 01:49:29;;;;;;;39.10;16.10;;;;;;;0.20;100.00;95047.00;20678765;28;20034;-73
2021/12/26 01:59:30;;;;;;;38.92;15.82;;;;;;;0.14;100.00;95050.59;20639008;28;20069;-74
2021/12/26 02:09:30;;;;;;;39.47;15.57;;;;;;;0.20;100.00;95057.41;20661999;28;20047;-74
2021/12/26 02:19:31;;;;;;;41.70;15.90;;;;;;;0.24;100.00;95049.91;20660056;28;20075;-74
2021/12/26 02:29:31;;;;;;;45.55;15.82;;;;;;;0.23;100.00;95056.16;20653186;28;20038;-74
2021/12/26 02:39:32;;;;;;;53.70;17.48;;;;;;;0.31;100.00;95050.47;20666873;28;20496;-74
2021/12/26 02:49:33;;;;;;;49.70;18.10;;;;;;;0.29;100.00;95042.13;20662758;28;20049;-74
2021/12/26 02:59:33;;;;;;;63.95;18.45;;;;;;;0.24;100.00;95023.84;20640638;28;20079;-74
2021/12/26 03:20:00;;;;;;;67.00;18.67;;;;;;;0.25;100.00;95028.03;20656147;28;20085;-73
2021/12/26 03:30:01;;;;;;;55.80;16.48;;;;;;;0.24;100.00;95024.63;20659684;28;20036;-74
2021/12/26 03:50:30;;;;;;;106.25;18.58;;;;;;;0.30;100.00;95023.63;20672612;28;20046;-73
2021/12/26 04:00:32;;;;;;;80.28;16.90;;;;;;;0.34;100.00;95016.88;20671215;28;20679;-73
2021/12/26 04:10:59;;;;;;;65.72;16.40;;;;;;;0.37;100.00;95013.00;20641928;28;20042;-74
2021/12/26 04:20:59;;;;;;;;;;;;;;;0.33;100.00;95014.56;20648687;28;20055;-74
2021/12/26 04:30:59;;;;;;;79.03;16.35;;;;;;;0.30;100.00;95017.66;20658664;28;19944;-73
2021/12/26 04:41:00;;;;;;;58.90;16.17;;;;;;;0.30;100.00;95012.44;20642941;28;20046;-75
2021/12/26 04:51:01;;;;;;;67.03;15.85;;;;;;;0.33;100.00;95015.31;20673436;28;20453;-73
2021/12/26 05:01:03;;;;;;;67.47;15.35;;;;;;;0.40;100.00;95013.28;20668642;28;20309;-74
2021/12/26 05:11:03;;;;;;;39.13;14.30;;;;;;;0.46;100.00;95011.47;20637511;28;1030078;-74
2021/12/26 05:21:04;;;;;;;40.22;13.50;;;;;;;0.52;100.00;95002.66;20664078;28;20050;-73
2021/12/26 05:31:04;;;;;;;37.17;13.57;;;;;;;0.62;100.00;95007.13;20663982;28;20102;-74
2021/12/26 05:41:05;;;;;;;34.35;12.32;;;;;;;0.64;100.00;95006.88;20675468;28;20030;-71
2021/12/26 05:51:06;;;;;;;37.90;13.27;;;;;;;0.67;100.00;94991.50;20680230;28;20050;-73
2021/12/26 06:01:06;;;;;;;38.55;13.43;;;;;;;0.66;100.00;94992.56;20662294;28;20065;-74
2021/12/26 06:11:06;;;;;;;43.75;14.27;;;;;;;0.71;100.00;94991.78;20664000;28;20042;-71
2021/12/26 06:21:07;;;;;;;35.20;13.05;;;;;;;0.75;100.00;94992.84;20670800;28;20065;-72
2021/12/26 06:31:07;;;;;;;27.80;11.10;;;;;;;0.80;100.00;95000.69;20667978;28;20049;-74
2021/12/26 06:41:08;;;;;;;33.60;13.30;;;;;;;0.76;100.00;95004.84;20659075;28;20042;-71
2021/12/26 06:51:09;;;;;;;38.75;12.73;;;;;;;0.81;100.00;95004.88;20673169;28;20041;-73
2021/12/26 07:01:10;;;;;;;33.63;14.63;;;;;;;0.82;100.00;94997.81;20671794;28;20062;-74
2021/12/26 07:11:10;;;;;;;35.63;14.68;;;;;;;0.83;100.00;95000.19;20666778;28;20042;-72
2021/12/26 07:21:11;;;;;;;31.85;12.15;;;;;;;0.78;100.00;95013.19;20659201;28;20053;-73
2021/12/26 07:31:11;;;;;;;31.70;11.82;;;;;;;0.78;100.00;95019.19;20650457;28;20199;-74
2021/12/26 07:41:11;;;;;;;28.60;11.77;;;;;;;0.74;100.00;95027.78;20663577;28;20061;-72
2021/12/26 07:51:12;;;;;;;35.97;15.60;;;;;;;0.83;100.00;95015.81;20630802;28;20054;-72
2021/12/26 08:01:12;;;;;;;34.53;13.38;;;;;;;0.88;100.00;95021.06;20582452;28;20106;-71
2021/12/26 08:18:34;;;;;;;30.75;13.00;;;;;;;0.95;100.00;95016.38;30418848;19;203685;-71
2021/12/26 08:33:28;;;;;;;36.40;13.20;;;;;;;1.03;100.00;95025.53;30595355;19;20400;-71
2021/12/26 08:43:29;;;;;;;31.33;12.38;;;;;;;1.03;100.00;95032.59;30639049;19;20031;-73
2021/12/26 08:53:29;;;;;;;33.80;11.65;;;;;;;1.10;100.00;95030.50;30656599;19;20014;-72
2021/12/26 09:03:30;;;;;;;32.90;13.57;;;;;;;1.17;100.00;95025.84;30667335;19;20021;-71
2021/12/26 09:13:30;;;;;;;36.03;13.23;;;;;;;1.30;100.00;95029.78;30635124;19;20006;-71
2021/12/26 09:23:31;;;;;;;66.95;13.75;;;;;;;1.37;100.00;95035.56;30637490;19;20042;-70
2021/12/26 09:33:32;;;;;;;60.80;12.25;;;;;;;1.43;100.00;95039.75;30635174;19;20014;-71
2021/12/26 09:43:32;;;;;;;49.53;11.55;;;;;;;1.58;100.00;95037.16;30560053;19;20011;-72
2021/12/26 09:53:40;;;;;;;81.78;12.50;;;;;;;1.59;100.00;95048.34;30542010;19;20025;-72
2021/12/26 10:03:41;;;;;;;50.95;15.50;;;;;;;1.71;100.00;95045.50;30536719;19;20463;-71
2021/12/26 10:13:50;;;;;;;54.70;11.25;;;;;;;1.77;100.00;95029.59;30506983;19;20011;-72
2021/12/26 10:23:52;;;;;;;105.45;14.18;;;;;;;1.81;100.00;95020.19;30493081;19;20023;-72
2021/12/26 10:33:52;;;;;;;35.40;11.73;;;;;;;1.84;100.00;95007.66;30521353;19;20010;-72
2021/12/26 10:43:52;;;;;;;31.77;8.95;;;;;;;1.98;100.00;94993.03;30528740;19;20006;-71
2021/12/26 10:54:13;;;;;;;65.70;10.30;;;;;;;2.08;100.00;94993.03;30463715;19;20454;-72
2021/12/26 11:04:13;;;;;;;55.92;11.20;;;;;;;2.22;100.00;94988.03;30457146;19;20449;-72
2021/12/26 11:14:13;;;;;;;41.80;10.23;;;;;;;2.36;100.00;94994.28;30428611;19;20360;-72
2021/12/26 11:24:14;;;;;;;54.78;10.35;;;;;;;2.42;100.00;94992.44;30462696;19;20062;-72
2021/12/26 11:34:15;;;;;;;293.23;18.27;;;;;;;2.27;100.00;94982.81;30466960;19;20221;-72
2021/12/26 11:44:37;;;;;;;89.43;12.05;;;;;;;2.45;100.00;94981.44;30449151;19;20003;-71
2021/12/26 11:55:03;;;;;;;29.98;8.80;;;;;;;2.45;100.00;94978.06;30483797;19;20502;-72
2021/12/26 12:05:18;;;;;;;89.95;10.07;;;;;;;2.46;100.00;94966.56;30442889;19;20453;-72
2021/12/26 12:15:57;;;;;;;159.27;12.73;;;;;;;2.51;100.00;94964.69;30483198;19;20388;-70
2021/12/26 12:25:58;;;;;;;90.25;10.27;;;;;;;2.67;100.00;94956.81;30511151;19;20069;-70
2021/12/26 12:36:08;;;;;;;70.10;9.48;;;;;;;2.66;100.00;94948.19;30445405;19;20031;-71
2021/12/26 12:46:09;;;;;;;91.95;8.90;;;;;;;2.64;100.00;94945.06;30519783;19;20006;-72
2021/12/26 12:56:30;;;;;;;115.95;11.05;;;;;;;2.52;100.00;94939.38;30516016;19;20086;-74
2021/12/26 13:06:30;;;;;;;108.38;10.57;;;;;;;2.56;100.00;94940.41;30525978;19;20530;-74
2021/12/26 13:16:31;;;;;;;37.72;8.07;;;;;;;2.62;100.00;94926.25;30559408;19;20460;-75
2021/12/26 13:26:31;;;;;;;59.30;9.32;;;;;;;2.61;100.00;94920.22;30545818;19;20010;-74
2021/12/26 13:36:34;;;;;;;74.85;7.50;;;;;;;2.66;100.00;94916.84;30567953;19;20013;-74
2021/12/26 13:46:36;;;;;;;55.33;8.77;;;;;;;2.65;100.00;94907.41;30523454;19;20478;-72
2021/12/26 13:56:57;;;;;;;31.20;7.45;;;;;;;2.80;100.00;94901.34;30562226;19;20462;-71
2021/12/26 14:06:58;;;;;;;48.53;7.68;;;;;;;2.77;100.00;94889.56;30543813;19;20471;-75
2021/12/26 14:17:06;;;;;;;40.08;7.97;;;;;;;2.90;100.00;94887.41;30561231;19;20472;-75
2021/12/26 14:27:07;;;;;;;61.80;7.45;;;;;;;2.88;100.00;94894.75;30539697;19;20006;-74
2021/12/26 14:37:08;;;;;;;40.45;7.95;;;;;;;2.88;100.00;94890.31;30538248;19;20094;-71
2021/12/26 14:47:10;;;;;;;90.57;9.80;;;;;;;2.66;100.00;94895.13;30551006;19;20031;-75
2021/12/26 14:57:24;;;;;;;255.90;16.13;;;;;;;2.58;100.00;94901.72;30534761;19;20003;-75
2021/12/26 15:07:25;;;;;;;519.22;32.15;;;;;;;2.52;100.00;94895.72;30525988;19;20014;-75
2021/12/26 15:17:25;;;;;;;91.80;9.55;;;;;;;2.46;100.00;94894.16;30472797;19;20020;-75
2021/12/26 15:27:28;;;;;;;89.45;8.68;;;;;;;2.46;100.00;94891.56;30496140;19;20372;-74
2021/12/26 15:37:29;;;;;;;25.58;7.38;;;;;;;2.44;100.00;94891.03;30477624;19;20101;-75
2021/12/26 15:47:29;;;;;;;17.55;6.40;;;;;;;2.36;100.00;94889.75;30486376;19;20010;-73
2021/12/26 15:57:29;;;;;;;31.60;6.78;;;;;;;2.31;100.00;94902.84;30512666;19;20007;-72
2021/12/26 16:07:30;;;;;;;22.80;6.70;;;;;;;2.30;100.00;94903.13;30491748;19;20014;-73
2021/12/26 16:17:30;;;;;;;18.50;6.72;;;;;;;2.25;100.00;94898.69;30485814;19;20010;-74
2021/12/26 16:27:31;;;;;;;11.93;4.72;;;;;;;2.17;100.00;94896.63;30497332;19;20003;-71
2021/12/26 16:37:31;;;;;;;10.20;4.30;;;;;;;2.14;100.00;94905.75;30488324;19;20010;-75
2021/12/26 16:47:32;;;;;;;10.48;5.18;;;;;;;2.17;100.00;94900.03;30502016;19;20011;-71
2021/12/26 16:57:33;;;;;;;13.63;6.15;;;;;;;2.24;100.00;94893.75;30568206;19;20077;-74
2021/12/26 17:07:34;;;;;;;11.98;5.18;;;;;;;2.23;100.00;94890.34;30551162;19;20463;-74
2021/12/26 17:17:34;;;;;;;10.68;5.40;;;;;;;2.24;100.00;94886.66;30578846;19;20017;-74
2021/12/26 17:27:35;;;;;;;11.35;5.75;;;;;;;2.30;100.00;94877.00;30547298;19;20014;-74
2021/12/26 17:37:35;;;;;;;10.85;5.10;;;;;;;2.20;100.00;94868.13;30566659;19;20015;-74
2021/12/26 17:47:36;;;;;;;8.75;4.25;;;;;;;2.21;100.00;94871.53;30554891;19;20010;-74
2021/12/26 17:57:36;;;;;;;7.63;3.53;;;;;;;2.23;100.00;94869.44;30551862;19;20031;-74
2021/12/26 18:07:37;;;;;;;9.70;4.70;;;;;;;2.17;100.00;94858.22;30556562;19;20011;-74
2021/12/26 18:17:38;;;;;;;9.50;4.85;;;;;;;2.21;100.00;94848.81;30551162;19;20369;-74
2021/12/26 18:27:39;;;;;;;11.27;5.20;;;;;;;2.22;100.00;94857.41;30558070;19;20006;-73
2021/12/26 18:37:39;;;;;;;12.10;5.68;;;;;;;2.20;100.00;94852.47;30549558;19;20400;-74
2021/12/26 18:47:40;;;;;;;11.48;5.90;;;;;;;2.19;100.00;94858.75;30543708;19;20035;-74
2021/12/26 18:57:40;;;;;;;11.00;5.40;;;;;;;2.24;100.00;94850.09;30557848;19;20018;-74
2021/12/26 19:07:40;;;;;;;11.20;5.38;;;;;;;2.26;100.00;94850.63;30536457;19;20006;-74
2021/12/26 19:17:41;;;;;;;11.90;5.90;;;;;;;2.35;100.00;94850.81;30537067;19;20009;-73
2021/12/26 19:27:43;;;;;;;10.27;5.30;;;;;;;2.28;100.00;94839.91;30548816;19;20025;-73
2021/12/26 19:37:43;;;;;;;10.20;3.92;;;;;;;2.30;100.00;94835.19;30543998;19;20006;-74
2021/12/26 19:47:44;;;;;;;10.52;5.40;;;;;;;2.28;100.00;94837.28;30559343;19;20014;-75
2021/12/26 19:57:44;;;;;;;12.80;6.53;;;;;;;2.36;100.00;94844.56;30538436;19;20557;-73
2021/12/26 20:07:45;;;;;;;17.70;8.25;;;;;;;2.26;100.00;94845.38;30528304;19;20073;-71
2021/12/26 20:17:45;;;;;;;19.08;9.73;;;;;;;2.29;100.00;94844.88;30541535;19;20011;-74
2021/12/26 20:27:49;;;;;;;15.80;8.35;;;;;;;2.28;100.00;94843.28;30500036;19;20014;-71
2021/12/26 20:37:50;;;;;;;16.92;9.05;;;;;;;2.33;100.00;94850.31;30462593;19;20011;-70
2021/12/26 20:47:50;;;;;;;14.70;7.85;;;;;;;2.30;100.00;94838.56;30472423;19;20387;-70
2021/12/26 20:57:51;;;;;;;15.13;7.32;;;;;;;2.30;100.00;94832.56;30452996;19;20385;-70
2021/12/26 21:07:51;;;;;;;12.25;6.22;;;;;;;2.33;100.00;94824.19;30471907;19;20391;-70
2021/12/26 21:17:52;;;;;;;12.90;6.05;;;;;;;2.27;100.00;94812.19;30447940;19;20010;-69
2021/12/26 21:27:52;;;;;;;10.45;5.38;;;;;;;2.26;100.00;94816.66;30467526;19;20262;-70
2021/12/26 21:37:53;;;;;;;10.52;4.95;;;;;;;2.23;100.00;94809.38;30442979;19;20019;-69
2021/12/26 21:47:56;;;;;;;21.13;11.30;;;;;;;2.23;100.00;94804.13;30476959;19;20008;-69
2021/12/26 21:57:58;;;;;;;11.80;6.45;;;;;;;2.21;100.00;94804.41;30504728;19;20010;-69
2021/12/26 22:07:58;;;;;;;11.40;6.00;;;;;;;2.20;100.00;94807.28;30423333;19;20010;-70
2021/12/26 22:17:59;;;;;;;27.52;9.20;;;;;;;2.21;100.00;94803.63;30476623;19;20562;-70
2021/12/26 22:28:00;;;;;;;13.65;7.22;;;;;;;2.18;100.00;94807.53;30499093;19;20010;-70
2021/12/26 22:38:00;;;;;;;18.20;7.63;;;;;;;2.19;100.00;94803.13;30489540;19;20327;-70
2021/12/26 22:48:01;;;;;;;21.10;8.13;;;;;;;2.25;100.00;94783.75;30384069;19;20010;-70
2021/12/26 22:58:02;;;;;;;37.05;10.98;;;;;;;2.22;100.00;94790.28;30468182;19;20010;-69
2021/12/26 23:08:03;;;;;;;154.45;15.25;;;;;;;2.17;100.00;94790.31;30287518;19;20022;-84
2021/12/26 23:18:06;;;;;;;481.42;32.28;;;;;;;2.16;100.00;94770.44;30450841;19;20014;-83
2021/12/26 23:28:06;;;;;;;92.20;13.05;;;;;;;2.12;100.00;94779.09;30441471;19;20493;-83
2021/12/26 23:38:09;;;;;;;23.48;8.90;;;;;;;2.13;100.00;94783.28;30489332;19;20049;-83
2021/12/26 23:48:09;;;;;;;94.10;12.10;;;;;;;2.12;100.00;94779.88;30504596;19;20011;-83
2021/12/26 23:58:09;;;;;;;103.07;10.07;;;;;;;2.10;100.00;94789.03;30478523;19;20655;-84
